Time;durP1;ratioP1;P1;durP2;ratioP2;P2;SDS_P1;SDS_P2;PMS_P1;PMS_P2;Temp;Humidity;BMP_temperature;BMP_pressure;BME280_temperature;BME280_humidity;BME280_pressure;Samples;Min_cycle;Max_cycle;Signal;HPM_P1;HPM_P2
2021/07/13 00:01:54;;;;;;;18.58;17.17;;;20.10;78.80;;;;;;4998183;29;20099;-69
2021/07/13 00:04:26;;;;;;;18.48;16.98;;;20.10;78.80;;;;;;4998471;29;20042;-69
2021/07/13 00:06:58;;;;;;;18.83;17.42;;;20.10;79.10;;;;;;4997700;29;20050;-70
2021/07/13 00:09:30;;;;;;;18.48;16.98;;;20.10;79.20;;;;;;5000177;29;20045;-69
2021/07/13 00:12:03;;;;;;;18.52;17.17;;;20.10;78.60;;;;;;4998780;29;20106;-71
2021/07/13 00:14:36;;;;;;;19.00;17.42;;;20.10;79.20;;;;;;4998169;29;20594;-69
2021/07/13 00:17:08;;;;;;;18.23;16.92;;;20.10;79.10;;;;;;4998730;29;20141;-69
2021/07/13 00:19:40;;;;;;;18.63;17.17;;;20.10;79.20;;;;;;5000545;29;20143;-69
2021/07/13 00:22:11;;;;;;;18.70;17.30;;;20.10;79.50;;;;;;4999251;29;20118;-70
2021/07/13 00:24:43;;;;;;;18.40;17.10;;;20.00;79.30;;;;;;4999987;29;20721;-69
2021/07/13 00:27:15;;;;;;;18.55;17.10;;;19.90;79.30;;;;;;4998375;29;20045;-69
2021/07/13 00:29:47;;;;;;;18.60;17.20;;;19.90;79.50;;;;;;5000477;29;20452;-69
2021/07/13 00:32:19;;;;;;;19.05;17.45;;;19.80;79.30;;;;;;5000589;29;20646;-69
2021/07/13 00:34:51;;;;;;;18.75;17.25;;;19.80;79.40;;;;;;5002934;29;20081;-69
2021/07/13 00:37:23;;;;;;;18.98;17.58;;;19.90;79.40;;;;;;5002126;29;20554;-69
2021/07/13 00:39:55;;;;;;;18.52;17.20;;;19.80;79.50;;;;;;5004024;29;20056;-69
2021/07/13 00:42:27;;;;;;;19.02;17.40;;;19.90;79.50;;;;;;5002391;29;20070;-69
2021/07/13 00:44:59;;;;;;;19.10;17.70;;;19.80;79.50;;;;;;5001941;29;20898;-69
2021/07/13 00:47:31;;;;;;;18.80;17.38;;;19.80;79.70;;;;;;5003060;29;20045;-69
2021/07/13 00:50:04;;;;;;;18.83;17.42;;;19.80;79.60;;;;;;5000841;29;20050;-69
2021/07/13 00:52:36;;;;;;;19.60;18.00;;;19.80;80.10;;;;;;5003487;29;20460;-71
2021/07/13 00:55:10;;;;;;;18.98;17.55;;;19.80;79.60;;;;;;5002191;29;20042;-70
2021/07/13 00:57:43;;;;;;;19.30;17.58;;;19.80;80.00;;;;;;5003507;29;20124;-69
2021/07/13 01:00:18;;;;;;;18.55;17.23;;;19.80;80.20;;;;;;5002667;29;20054;-69
2021/07/13 01:02:52;;;;;;;18.70;17.20;;;19.80;80.30;;;;;;5002734;29;20049;-69
2021/07/13 01:05:36;;;;;;;18.00;16.65;;;19.80;80.50;;;;;;5002062;29;20545;-71
2021/07/13 01:08:13;;;;;;;18.40;17.00;;;19.80;79.80;;;;;;5003017;29;20784;-70
2021/07/13 01:11:24;;;;;;;18.73;17.33;;;19.80;80.60;;;;;;5001940;29;20525;-69
2021/07/13 01:14:13;;;;;;;18.42;17.05;;;19.80;80.40;;;;;;4994081;29;20114;-69
2021/07/13 01:16:51;;;;;;;18.45;17.02;;;19.80;80.70;;;;;;5002490;29;20090;-69
2021/07/13 01:19:37;;;;;;;18.90;17.48;;;19.80;80.70;;;;;;5001429;29;20161;-70
2021/07/13 01:22:16;;;;;;;18.52;17.02;;;19.70;80.40;;;;;;5001335;29;20152;-69
2021/07/13 01:24:57;;;;;;;19.23;17.73;;;19.70;80.90;;;;;;5002020;29;20050;-71
2021/07/13 01:27:38;;;;;;;18.75;17.30;;;19.80;80.80;;;;;;5002225;29;20148;-70
2021/07/13 01:30:22;;;;;;;18.85;17.45;;;19.70;80.50;;;;;;5001354;29;20138;-70
2021/07/13 01:33:04;;;;;;;18.30;16.80;;;19.70;80.80;;;;;;5002930;29;20049;-69
2021/07/13 01:35:47;;;;;;;18.48;16.98;;;19.70;81.10;;;;;;5000754;29;20042;-69
2021/07/13 01:38:23;;;;;;;18.75;17.15;;;19.60;80.90;;;;;;5002485;29;20090;-69
2021/07/13 01:41:01;;;;;;;18.30;16.80;;;19.60;81.10;;;;;;5001183;29;20106;-69
2021/07/13 01:43:41;;;;;;;18.50;17.10;;;19.60;81.20;;;;;;5001802;29;20141;-71
2021/07/13 01:46:14;;;;;;;18.85;17.45;;;19.60;81.10;;;;;;5001336;29;20095;-69
2021/07/13 01:48:50;;;;;;;18.55;17.23;;;19.60;81.00;;;;;;5001658;29;20050;-69
2021/07/13 01:51:23;;;;;;;19.00;17.60;;;19.50;81.30;;;;;;5001682;29;20129;-70
2021/07/13 01:54:05;;;;;;;18.52;17.23;;;19.50;81.50;;;;;;5001862;29;20129;-71
2021/07/13 01:56:38;;;;;;;19.27;17.75;;;19.50;81.40;;;;;;4999364;29;20133;-70
2021/07/13 01:59:15;;;;;;;19.10;17.60;;;19.40;81.30;;;;;;5001893;29;20054;-69
2021/07/13 02:01:48;;;;;;;19.10;17.50;;;19.40;81.40;;;;;;5001011;29;20148;-69
2021/07/13 02:04:26;;;;;;;17.95;16.65;;;19.30;81.20;;;;;;5001442;29;20073;-70
2021/07/13 02:07:00;;;;;;;17.88;16.58;;;19.30;81.20;;;;;;5001192;29;20145;-69
2021/07/13 02:09:33;;;;;;;18.17;16.77;;;19.20;81.60;;;;;;5002088;29;20073;-68
2021/07/13 02:12:05;;;;;;;18.95;17.45;;;19.20;81.20;;;;;;5000791;29;20078;-69
2021/07/13 02:14:37;;;;;;;18.80;17.30;;;19.20;81.40;;;;;;5000997;29;20130;-69
2021/07/13 02:17:10;;;;;;;19.00;17.50;;;19.20;81.40;;;;;;5000768;29;20069;-69
2021/07/13 02:19:42;;;;;;;18.55;17.15;;;19.20;81.40;;;;;;5002412;29;20067;-69
2021/07/13 02:22:14;;;;;;;17.83;16.52;;;19.20;82.00;;;;;;5001505;29;20120;-69
2021/07/13 02:24:46;;;;;;;18.42;17.02;;;19.20;82.20;;;;;;4999873;29;20054;-69
2021/07/13 02:27:20;;;;;;;18.45;17.05;;;19.20;82.30;;;;;;5001321;29;20073;-69
2021/07/13 02:29:56;;;;;;;18.90;17.45;;;19.20;82.10;;;;;;5001801;29;20045;-69
2021/07/13 02:32:48;;;;;;;18.92;17.52;;;19.20;81.60;;;;;;4999980;29;20533;-69
2021/07/13 02:35:30;;;;;;;19.05;17.52;;;19.30;81.70;;;;;;4998759;29;20145;-69
2021/07/13 02:38:03;;;;;;;18.63;17.23;;;19.20;82.00;;;;;;5001092;29;20611;-69
2021/07/13 02:40:36;;;;;;;19.38;17.70;;;19.30;82.10;;;;;;5001200;29;20062;-69
2021/07/13 02:43:08;;;;;;;19.40;17.92;;;19.30;82.10;;;;;;5001924;29;20209;-69
2021/07/13 02:45:42;;;;;;;19.42;17.92;;;19.30;82.30;;;;;;4998693;29;20077;-70
2021/07/13 02:48:14;;;;;;;19.02;17.63;;;19.30;82.70;;;;;;5001154;29;20145;-69
2021/07/13 02:50:47;;;;;;;19.20;17.80;;;19.30;82.50;;;;;;5001294;29;20450;-69
2021/07/13 02:53:20;;;;;;;18.65;17.25;;;19.40;82.30;;;;;;5000657;29;20677;-69
2021/07/13 02:55:53;;;;;;;19.00;17.60;;;19.40;82.60;;;;;;4999140;29;20102;-71
2021/07/13 02:58:25;;;;;;;18.90;17.50;;;19.40;83.10;;;;;;5001494;29;20081;-70
2021/07/13 03:00:58;;;;;;;19.13;17.70;;;19.40;83.20;;;;;;5000951;29;20430;-69
2021/07/13 03:03:30;;;;;;;19.55;17.60;;;19.40;83.40;;;;;;5001381;29;20045;-69
2021/07/13 03:06:03;;;;;;;19.35;17.75;;;19.40;82.10;;;;;;5000189;29;20583;-69
2021/07/13 03:08:35;;;;;;;18.73;17.33;;;19.40;82.00;;;;;;4999853;29;20165;-69
2021/07/13 03:11:08;;;;;;;19.45;17.67;;;19.40;82.60;;;;;;5000295;29;20094;-70
2021/07/13 03:13:41;;;;;;;19.42;17.92;;;19.40;82.30;;;;;;5000349;29;20073;-70
2021/07/13 03:16:14;;;;;;;19.50;18.00;;;19.40;83.10;;;;;;5000102;29;20046;-69
2021/07/13 03:18:46;;;;;;;19.67;18.17;;;19.40;82.90;;;;;;4999663;29;20042;-69
2021/07/13 03:21:22;;;;;;;19.58;18.08;;;19.50;82.40;;;;;;5000605;29;20110;-70
2021/07/13 03:23:59;;;;;;;19.77;18.27;;;19.50;83.00;;;;;;5000018;29;20070;-69
2021/07/13 03:26:36;;;;;;;18.40;17.00;;;19.50;82.70;;;;;;4998979;29;20127;-70
2021/07/13 03:29:11;;;;;;;18.92;17.38;;;19.40;82.90;;;;;;4984246;29;20050;-69
2021/07/13 03:31:44;;;;;;;19.30;17.70;;;19.40;82.50;;;;;;5000779;29;20098;-70
2021/07/13 03:34:18;;;;;;;19.50;18.00;;;19.40;82.60;;;;;;5000093;29;20776;-71
2021/07/13 03:36:50;;;;;;;18.92;17.42;;;19.50;82.40;;;;;;5000405;29;20060;-69
2021/07/13 03:39:22;;;;;;;19.73;18.13;;;19.50;82.50;;;;;;5000291;29;20050;-69
2021/07/13 03:41:58;;;;;;;20.27;18.73;;;19.50;82.60;;;;;;4998899;29;20050;-70
2021/07/13 03:44:30;;;;;;;21.08;19.38;;;19.50;82.20;;;;;;5000077;29;20146;-69
2021/07/13 03:47:03;;;;;;;20.40;18.90;;;19.50;82.60;;;;;;5000683;29;20057;-69
2021/07/13 03:49:36;;;;;;;21.20;19.60;;;19.40;82.80;;;;;;5000422;29;20098;-69
2021/07/13 03:52:08;;;;;;;20.70;19.08;;;19.40;83.50;;;;;;5000499;29;20042;-68
2021/07/13 03:54:40;;;;;;;20.55;19.02;;;19.40;83.20;;;;;;4999928;29;20575;-69
2021/07/13 03:57:12;;;;;;;19.73;18.23;;;19.40;83.10;;;;;;4999852;29;20475;-69
2021/07/13 03:59:47;;;;;;;20.05;18.55;;;19.40;82.80;;;;;;4999112;29;20058;-69
2021/07/13 04:02:19;;;;;;;19.92;18.27;;;19.40;82.60;;;;;;5000265;29;20065;-69
2021/07/13 04:04:51;;;;;;;19.08;17.67;;;19.40;83.20;;;;;;4999111;29;20103;-69
2021/07/13 04:07:23;;;;;;;20.10;18.40;;;19.40;82.50;;;;;;5000691;29;20106;-68
2021/07/13 04:09:54;;;;;;;19.92;18.25;;;19.50;83.80;;;;;;5004625;29;20530;-68
2021/07/13 04:12:26;;;;;;;19.23;17.83;;;19.50;82.60;;;;;;5003266;29;20514;-69
2021/07/13 04:14:59;;;;;;;19.05;17.63;;;19.50;83.20;;;;;;5003211;29;20046;-69
2021/07/13 04:17:30;;;;;;;19.95;18.45;;;19.50;83.00;;;;;;5003447;29;20518;-69
2021/07/13 04:20:08;;;;;;;19.70;18.20;;;19.50;82.20;;;;;;5002150;29;20443;-68
2021/07/13 04:22:43;;;;;;;19.88;18.38;;;19.50;82.40;;;;;;5004090;29;20050;-68
2021/07/13 04:25:15;;;;;;;19.67;18.17;;;19.60;82.50;;;;;;5002285;29;20110;-68
2021/07/13 04:27:47;;;;;;;19.02;17.52;;;19.60;82.60;;;;;;4986357;29;20566;-69
2021/07/13 04:30:19;;;;;;;19.08;17.58;;;19.50;83.20;;;;;;5002784;29;20050;-70
2021/07/13 04:32:51;;;;;;;19.00;17.50;;;19.50;82.50;;;;;;5003664;29;20048;-69
2021/07/13 04:35:23;;;;;;;19.02;17.33;;;19.50;82.60;;;;;;5001776;29;20046;-69
2021/07/13 04:37:56;;;;;;;18.48;17.08;;;19.50;82.40;;;;;;5003657;29;20041;-69
2021/07/13 04:40:28;;;;;;;18.98;17.48;;;19.60;82.30;;;;;;5002554;29;21023;-70
2021/07/13 04:43:00;;;;;;;18.73;17.23;;;19.60;82.30;;;;;;5003832;29;20050;-69
2021/07/13 04:45:33;;;;;;;18.90;17.30;;;19.60;82.30;;;;;;5002189;29;20558;-69
2021/07/13 04:48:05;;;;;;;18.23;16.83;;;19.60;82.50;;;;;;5002714;29;20048;-69
2021/07/13 04:50:37;;;;;;;19.10;17.60;;;19.60;82.40;;;;;;5001921;29;20475;-69
2021/07/13 04:53:09;;;;;;;18.73;17.33;;;19.60;82.30;;;;;;5004341;29;20137;-68
2021/07/13 04:55:41;;;;;;;19.27;17.67;;;19.60;82.30;;;;;;5000663;29;20133;-69
2021/07/13 04:58:13;;;;;;;18.88;17.23;;;19.60;82.60;;;;;;5002397;29;20122;-69
2021/07/13 05:00:45;;;;;;;19.10;17.38;;;19.60;82.30;;;;;;5000945;29;20181;-69
2021/07/13 05:03:17;;;;;;;18.45;16.95;;;19.60;82.30;;;;;;5003381;29;20102;-69
2021/07/13 05:05:49;;;;;;;17.95;16.65;;;19.60;82.60;;;;;;4984963;29;20106;-69
2021/07/13 05:08:23;;;;;;;18.02;16.63;;;19.60;82.20;;;;;;5002487;29;20053;-68
2021/07/13 05:10:55;;;;;;;18.42;16.88;;;19.60;82.00;;;;;;5000362;29;20098;-69
2021/07/13 05:13:27;;;;;;;18.50;17.10;;;19.60;82.20;;;;;;5002340;29;20094;-69
2021/07/13 05:15:59;;;;;;;18.40;16.90;;;19.70;82.50;;;;;;5000513;29;20792;-68
2021/07/13 05:18:33;;;;;;;19.00;17.33;;;19.60;82.50;;;;;;4983862;29;20102;-68
2021/07/13 05:21:06;;;;;;;19.27;17.77;;;19.60;82.40;;;;;;5001677;29;20651;-69
2021/07/13 05:23:38;;;;;;;18.80;17.30;;;19.60;82.40;;;;;;5002121;29;20042;-68
2021/07/13 05:26:10;;;;;;;18.50;17.05;;;19.60;82.30;;;;;;4999975;29;20467;-68
2021/07/13 05:28:42;;;;;;;18.45;16.77;;;19.60;82.30;;;;;;5002153;29;20121;-70
2021/07/13 05:31:15;;;;;;;18.02;16.65;;;19.60;82.40;;;;;;5001721;29;20073;-70
2021/07/13 05:33:47;;;;;;;17.75;16.33;;;19.60;82.20;;;;;;5001889;29;20061;-68
2021/07/13 05:36:19;;;;;;;19.00;17.27;;;19.60;82.00;;;;;;4998884;29;20042;-69
2021/07/13 05:38:52;;;;;;;18.08;16.67;;;19.70;82.20;;;;;;5002057;29;20085;-69
2021/07/13 05:41:27;;;;;;;18.25;16.85;;;19.60;82.40;;;;;;5001164;29;20143;-69
2021/07/13 05:43:59;;;;;;;17.85;16.55;;;19.60;82.20;;;;;;5000718;29;20077;-69
2021/07/13 05:46:32;;;;;;;17.83;16.45;;;19.70;82.00;;;;;;5002114;29;20057;-69
2021/07/13 05:49:04;;;;;;;17.05;15.73;;;19.60;82.10;;;;;;5001485;29;20075;-70
2021/07/13 05:51:36;;;;;;;17.05;15.65;;;19.60;82.40;;;;;;5002347;29;20171;-70
2021/07/13 05:54:08;;;;;;;17.45;16.05;;;19.60;82.40;;;;;;5000806;29;20082;-69
2021/07/13 05:56:40;;;;;;;17.00;15.65;;;19.60;82.40;;;;;;5000789;29;21052;-70
2021/07/13 05:59:12;;;;;;;17.63;16.10;;;19.60;81.90;;;;;;5001143;29;20066;-69
2021/07/13 06:01:44;;;;;;;17.33;16.02;;;19.60;82.30;;;;;;5000746;29;20085;-69
2021/07/13 06:04:16;;;;;;;17.08;15.77;;;19.60;82.00;;;;;;5000343;29;20077;-69
2021/07/13 06:06:48;;;;;;;17.80;16.35;;;19.60;82.20;;;;;;4997220;29;20062;-69
2021/07/13 06:09:21;;;;;;;17.15;15.85;;;19.60;82.20;;;;;;4998710;29;20129;-70
2021/07/13 06:11:54;;;;;;;18.08;16.67;;;19.50;82.60;;;;;;4998414;29;20136;-69
2021/07/13 06:14:27;;;;;;;17.65;16.20;;;19.50;83.20;;;;;;4999886;29;20120;-69
2021/07/13 06:17:08;;;;;;;17.60;16.30;;;19.50;82.80;;;;;;4998882;29;20046;-71
2021/07/13 06:19:40;;;;;;;16.85;15.65;;;19.40;82.30;;;;;;4999515;29;20119;-70
2021/07/13 06:22:12;;;;;;;16.70;15.50;;;19.40;81.80;;;;;;4997861;29;20053;-68
2021/07/13 06:24:44;;;;;;;16.15;15.05;;;19.40;81.00;;;;;;5000597;29;20081;-68
2021/07/13 06:27:16;;;;;;;16.17;14.98;;;19.40;81.30;;;;;;4998329;29;20150;-69
2021/07/13 06:29:48;;;;;;;16.17;15.07;;;19.50;81.10;;;;;;4997813;29;20151;-69
2021/07/13 06:32:20;;;;;;;16.52;15.32;;;19.50;81.20;;;;;;4998857;29;20107;-69
2021/07/13 06:34:52;;;;;;;15.90;14.80;;;19.50;79.90;;;;;;4999404;29;20042;-69
2021/07/13 06:37:24;;;;;;;15.80;14.70;;;19.40;80.50;;;;;;5000380;29;20056;-69
2021/07/13 06:39:56;;;;;;;15.93;14.82;;;19.50;80.30;;;;;;5000925;29;20159;-69
2021/07/13 06:42:28;;;;;;;15.20;14.13;;;19.40;80.20;;;;;;4983900;29;20133;-69
2021/07/13 06:45:00;;;;;;;15.93;14.82;;;19.40;78.70;;;;;;5000290;29;20149;-69
2021/07/13 06:47:32;;;;;;;15.80;14.70;;;19.40;79.10;;;;;;5000425;29;20073;-70
2021/07/13 06:50:05;;;;;;;16.30;15.10;;;19.40;78.50;;;;;;5000278;29;20151;-72
2021/07/13 06:52:36;;;;;;;16.02;14.93;;;19.40;78.80;;;;;;4999670;29;20121;-69
2021/07/13 06:55:10;;;;;;;15.90;14.80;;;19.40;78.40;;;;;;5000150;29;20536;-69
2021/07/13 06:57:42;;;;;;;15.77;14.68;;;19.40;77.90;;;;;;4999969;29;20440;-69
2021/07/13 07:00:14;;;;;;;16.30;15.20;;;19.40;76.50;;;;;;4998939;29;20065;-69
2021/07/13 07:02:46;;;;;;;16.10;15.00;;;19.30;77.30;;;;;;4998955;29;20066;-68
2021/07/13 07:05:18;;;;;;;16.00;14.90;;;19.30;78.10;;;;;;4998484;29;20510;-70
2021/07/13 07:07:50;;;;;;;16.30;15.20;;;19.30;78.30;;;;;;5000672;29;20192;-69
2021/07/13 07:10:23;;;;;;;16.27;15.18;;;19.30;77.60;;;;;;4999300;29;20097;-68
2021/07/13 07:12:54;;;;;;;16.13;15.02;;;19.30;77.30;;;;;;5001241;29;20054;-70
2021/07/13 07:15:28;;;;;;;15.90;14.80;;;19.30;77.60;;;;;;4998310;29;20133;-69
2021/07/13 07:18:00;;;;;;;15.90;14.80;;;19.30;77.20;;;;;;4999910;29;20425;-69
2021/07/13 07:20:33;;;;;;;15.95;14.85;;;19.30;77.20;;;;;;4999355;29;20160;-71
2021/07/13 07:23:04;;;;;;;15.52;14.43;;;19.30;76.90;;;;;;5000470;29;20098;-69
2021/07/13 07:25:36;;;;;;;15.80;14.70;;;19.20;76.50;;;;;;4998485;29;20070;-69
2021/07/13 07:28:11;;;;;;;15.40;14.30;;;19.20;76.50;;;;;;4999769;29;20068;-69
2021/07/13 07:30:43;;;;;;;15.48;14.38;;;19.30;76.60;;;;;;4986767;29;20144;-69
2021/07/13 07:33:15;;;;;;;15.50;14.40;;;19.20;77.20;;;;;;4999377;29;20124;-69
2021/07/13 07:35:47;;;;;;;15.27;14.27;;;19.30;76.60;;;;;;4998775;29;20054;-70
2021/07/13 07:38:19;;;;;;;14.80;13.80;;;19.20;76.40;;;;;;4998696;29;20129;-69
2021/07/13 07:40:51;;;;;;;14.75;13.75;;;19.20;74.80;;;;;;4983960;29;20145;-69
2021/07/13 07:43:23;;;;;;;15.52;14.45;;;19.20;74.50;;;;;;4999647;29;20073;-69
2021/07/13 07:45:55;;;;;;;15.13;14.13;;;19.20;74.70;;;;;;4998652;29;20077;-70
2021/07/13 07:48:29;;;;;;;15.77;14.68;;;19.10;72.60;;;;;;4999843;29;20046;-69
2021/07/13 07:51:02;;;;;;;15.35;14.30;;;19.10;71.80;;;;;;4999276;29;20084;-69
2021/07/13 07:53:34;;;;;;;15.77;14.68;;;18.90;69.30;;;;;;5000322;29;20053;-69
2021/07/13 07:56:06;;;;;;;15.60;14.50;;;18.80;70.70;;;;;;4998660;29;20073;-69
2021/07/13 07:58:38;;;;;;;15.73;14.63;;;18.70;71.20;;;;;;5000193;29;20875;-69
2021/07/13 08:01:10;;;;;;;15.88;14.77;;;18.70;69.70;;;;;;4999735;29;20054;-69
2021/07/13 08:03:42;;;;;;;15.48;14.38;;;18.70;68.40;;;;;;5000040;29;20050;-68
2021/07/13 08:06:15;;;;;;;15.27;14.23;;;18.60;69.20;;;;;;4998298;29;20133;-71
2021/07/13 08:08:46;;;;;;;15.10;14.05;;;18.50;70.00;;;;;;4999727;29;20210;-71
2021/07/13 08:11:18;;;;;;;15.32;14.23;;;18.40;68.70;;;;;;4998751;29;20054;-69
2021/07/13 08:13:51;;;;;;;15.30;14.30;;;18.30;69.50;;;;;;4998808;29;20118;-70
2021/07/13 08:16:23;;;;;;;14.40;13.40;;;18.10;68.90;;;;;;4998433;29;20396;-70
2021/07/13 08:18:55;;;;;;;15.13;14.02;;;18.00;68.60;;;;;;5000104;29;20046;-68
2021/07/13 08:21:40;;;;;;;15.00;14.00;;;17.90;68.90;;;;;;4999180;29;20532;-70
2021/07/13 08:24:12;;;;;;;14.75;13.75;;;17.80;68.90;;;;;;4999394;29;20121;-68
2021/07/13 08:26:44;;;;;;;14.82;13.82;;;17.80;69.50;;;;;;4998438;29;20634;-69
2021/07/13 08:29:16;;;;;;;15.25;14.15;;;17.80;68.20;;;;;;4998328;29;20073;-68
2021/07/13 08:31:48;;;;;;;15.30;14.20;;;17.70;69.20;;;;;;4998419;29;20145;-70
2021/07/13 08:34:20;;;;;;;14.57;13.57;;;17.70;70.10;;;;;;4998702;29;20046;-68
2021/07/13 08:36:52;;;;;;;15.18;14.18;;;17.70;70.10;;;;;;4998581;29;20070;-68
2021/07/13 08:39:25;;;;;;;14.60;13.60;;;17.60;68.80;;;;;;5000424;29;20052;-68
2021/07/13 08:41:59;;;;;;;14.60;13.50;;;17.50;68.60;;;;;;4998491;29;20092;-68
2021/07/13 08:44:33;;;;;;;14.88;13.77;;;17.50;68.00;;;;;;4999144;29;20116;-69
2021/07/13 08:47:05;;;;;;;14.38;13.35;;;17.40;69.70;;;;;;4982525;29;20130;-69
2021/07/13 08:49:37;;;;;;;14.52;13.52;;;17.40;68.10;;;;;;4999758;29;20129;-69
2021/07/13 08:52:09;;;;;;;14.80;13.80;;;17.40;69.10;;;;;;4998262;29;20124;-69
2021/07/13 08:54:41;;;;;;;14.38;13.38;;;17.30;69.20;;;;;;5000892;29;20726;-68
2021/07/13 08:57:13;;;;;;;14.38;13.38;;;17.20;69.40;;;;;;4986046;29;20046;-68
2021/07/13 08:59:45;;;;;;;14.15;13.15;;;17.00;69.60;;;;;;5001395;29;20089;-68
2021/07/13 09:02:17;;;;;;;14.30;13.30;;;17.00;70.10;;;;;;4986300;29;20132;-68
2021/07/13 09:04:49;;;;;;;14.45;13.45;;;17.10;70.40;;;;;;5000742;29;20974;-68
2021/07/13 09:07:21;;;;;;;14.23;13.13;;;17.00;69.20;;;;;;5001745;29;20486;-69
2021/07/13 09:10:00;;;;;;;14.30;13.30;;;17.10;69.90;;;;;;5001779;29;20540;-69
2021/07/13 09:12:32;;;;;;;13.90;12.90;;;17.10;71.30;;;;;;5002462;29;20042;-69
2021/07/13 09:15:06;;;;;;;14.20;13.10;;;17.20;70.00;;;;;;5001968;29;20159;-68
2021/07/13 09:17:44;;;;;;;14.10;13.10;;;17.20;70.50;;;;;;4986548;29;20115;-69
2021/07/13 09:20:27;;;;;;;14.05;13.05;;;17.10;69.90;;;;;;5002412;29;20422;-70
2021/07/13 09:23:06;;;;;;;14.20;13.20;;;17.20;68.90;;;;;;5002399;29;20050;-68
2021/07/13 09:25:44;;;;;;;14.40;13.40;;;17.20;69.40;;;;;;4998826;29;20116;-68
2021/07/13 09:28:22;;;;;;;13.90;12.90;;;17.30;69.30;;;;;;5002008;29;20042;-68
2021/07/13 09:30:59;;;;;;;14.07;13.07;;;17.30;69.70;;;;;;5002201;29;20058;-68
2021/07/13 09:33:34;;;;;;;13.75;12.75;;;17.20;67.60;;;;;;5001041;29;20053;-69
2021/07/13 09:36:11;;;;;;;13.55;12.65;;;17.20;67.80;;;;;;5000649;29;20205;-69
2021/07/13 09:38:45;;;;;;;13.38;12.48;;;17.30;69.40;;;;;;5001133;29;20494;-67
2021/07/13 09:41:20;;;;;;;14.63;13.63;;;17.30;68.50;;;;;;5001287;29;20061;-69
2021/07/13 09:44:00;;;;;;;14.20;13.20;;;17.20;66.60;;;;;;5001333;29;20142;-69
2021/07/13 09:46:34;;;;;;;13.75;12.75;;;17.20;67.60;;;;;;5002071;29;20082;-68
2021/07/13 09:49:23;;;;;;;13.70;12.75;;;17.10;67.70;;;;;;5001188;29;20095;-68
2021/07/13 09:52:00;;;;;;;13.32;12.43;;;17.00;67.60;;;;;;4999250;29;20137;-69
2021/07/13 09:54:33;;;;;;;13.75;12.75;;;16.90;67.90;;;;;;4997788;29;20069;-68
2021/07/13 09:57:14;;;;;;;13.57;12.57;;;16.80;68.20;;;;;;4999795;29;20081;-69
2021/07/13 09:59:49;;;;;;;13.77;12.68;;;16.90;68.40;;;;;;5001599;29;20050;-68
2021/07/13 10:02:24;;;;;;;14.40;13.40;;;16.90;69.30;;;;;;5001620;29;20077;-69
2021/07/13 10:04:57;;;;;;;13.90;12.90;;;16.90;70.10;;;;;;4989247;29;21007;-69
2021/07/13 10:07:32;;;;;;;14.57;13.57;;;17.00;71.10;;;;;;5001670;29;20065;-68
2021/07/13 10:10:05;;;;;;;14.57;13.57;;;17.10;70.90;;;;;;4999775;29;20106;-68
2021/07/13 10:12:37;;;;;;;15.00;13.98;;;17.20;72.60;;;;;;5000542;29;20067;-70
2021/07/13 10:15:10;;;;;;;14.90;13.60;;;17.20;72.50;;;;;;4998529;29;20565;-70
2021/07/13 10:17:43;;;;;;;14.43;13.32;;;17.20;73.10;;;;;;5000543;29;20070;-69
2021/07/13 10:20:20;;;;;;;14.73;13.68;;;17.20;75.20;;;;;;4998689;29;20050;-71
2021/07/13 10:22:55;;;;;;;14.77;13.70;;;17.20;74.70;;;;;;4999530;29;20129;-70
2021/07/13 10:25:38;;;;;;;14.27;13.27;;;17.10;74.10;;;;;;4998767;29;20073;-70
2021/07/13 10:28:21;;;;;;;14.52;13.52;;;17.00;75.40;;;;;;4984528;29;20061;-68
2021/07/13 10:30:56;;;;;;;15.35;14.25;;;16.90;75.20;;;;;;4984611;29;20114;-68
2021/07/13 10:33:29;;;;;;;15.13;13.93;;;17.10;75.60;;;;;;5001227;29;20416;-70
2021/07/13 10:36:27;;;;;;;14.80;13.70;;;17.20;74.80;;;;;;5000528;29;20053;-69
2021/07/13 10:39:29;;;;;;;15.10;14.00;;;17.40;74.40;;;;;;4999307;29;20552;-71
2021/07/13 10:42:02;;;;;;;14.48;13.48;;;17.50;75.00;;;;;;4999296;29;20057;-69
2021/07/13 10:44:45;;;;;;;16.98;15.68;;;17.60;73.70;;;;;;5000809;29;20073;-69
2021/07/13 10:47:27;;;;;;;15.15;14.05;;;17.60;75.10;;;;;;5000114;29;20860;-69
2021/07/13 10:50:18;;;;;;;17.65;16.15;;;17.60;75.50;;;;;;5000766;29;20060;-69
2021/07/13 10:52:51;;;;;;;;;;;17.40;73.40;;;;;;5001354;29;20057;-69
2021/07/13 10:55:35;;;;;;;16.85;15.55;;;17.40;73.40;;;;;;4998762;29;19936;-69
2021/07/13 10:58:10;;;;;;;14.73;13.73;;;17.50;75.00;;;;;;5001600;29;20073;-68
2021/07/13 11:00:53;;;;;;;14.82;13.82;;;17.50;73.30;;;;;;5000504;29;20046;-68
2021/07/13 11:03:37;;;;;;;14.02;13.02;;;17.30;71.60;;;;;;5000625;29;20045;-70
2021/07/13 11:06:14;;;;;;;13.68;12.70;;;17.40;71.80;;;;;;4998977;29;20455;-71
2021/07/13 11:08:50;;;;;;;14.40;13.40;;;17.50;73.90;;;;;;5000791;29;20519;-70
2021/07/13 11:11:22;;;;;;;14.02;13.02;;;17.60;72.70;;;;;;4999435;29;20053;-70
2021/07/13 11:14:06;;;;;;;14.07;13.07;;;17.70;73.60;;;;;;5000289;29;20050;-69
2021/07/13 11:16:40;;;;;;;14.25;13.25;;;17.80;73.90;;;;;;4998980;29;20045;-68
2021/07/13 11:19:15;;;;;;;14.68;13.52;;;17.90;73.50;;;;;;5000905;29;20046;-69
2021/07/13 11:21:50;;;;;;;14.60;13.50;;;18.00;73.40;;;;;;4997973;29;20061;-69
2021/07/13 11:24:23;;;;;;;14.50;13.50;;;18.00;73.70;;;;;;4999154;29;20085;-68
2021/07/13 11:26:58;;;;;;;14.18;13.18;;;18.10;74.60;;;;;;4999040;29;20082;-68
2021/07/13 11:29:30;;;;;;;14.30;13.30;;;18.20;73.20;;;;;;4984192;29;20119;-67
2021/07/13 11:32:04;;;;;;;14.05;12.95;;;18.20;72.10;;;;;;4997885;29;20069;-68
2021/07/13 11:34:38;;;;;;;14.23;13.23;;;18.10;70.20;;;;;;4999506;29;20050;-68
2021/07/13 11:37:10;;;;;;;14.23;13.23;;;18.10;70.30;;;;;;4982140;29;22174;-69
2021/07/13 11:39:42;;;;;;;14.00;13.00;;;18.10;69.30;;;;;;5000987;29;20161;-67
2021/07/13 11:42:14;;;;;;;14.10;13.10;;;17.90;70.50;;;;;;4998794;29;20050;-68
2021/07/13 11:44:48;;;;;;;14.40;13.40;;;17.80;71.80;;;;;;5000292;29;20128;-69
2021/07/13 11:47:20;;;;;;;14.55;13.55;;;17.80;71.20;;;;;;4998336;29;20046;-69
2021/07/13 11:49:51;;;;;;;14.60;13.40;;;17.80;71.10;;;;;;4999894;29;20094;-68
2021/07/13 11:52:26;;;;;;;14.50;13.40;;;17.80;71.70;;;;;;4999822;29;20129;-68
2021/07/13 11:54:59;;;;;;;14.57;13.50;;;17.80;72.50;;;;;;4999399;29;20134;-68
2021/07/13 11:57:31;;;;;;;14.00;13.00;;;17.90;72.50;;;;;;4997795;29;20053;-70
2021/07/13 12:00:04;;;;;;;14.60;13.60;;;18.00;72.20;;;;;;4997893;29;20050;-69
2021/07/13 12:02:37;;;;;;;14.90;13.90;;;18.20;73.00;;;;;;4999527;29;20054;-68
2021/07/13 12:05:19;;;;;;;15.07;14.07;;;18.30;72.50;;;;;;4998444;29;20050;-68
2021/07/13 12:08:11;;;;;;;15.10;14.00;;;18.60;72.90;;;;;;4997469;29;20557;-68
2021/07/13 12:10:51;;;;;;;15.10;13.98;;;18.80;72.70;;;;;;4998242;29;20061;-69
2021/07/13 12:13:23;;;;;;;14.43;13.43;;;19.00;73.10;;;;;;4998923;29;20081;-70
2021/07/13 12:16:15;;;;;;;14.68;13.68;;;19.00;69.70;;;;;;4999448;29;20054;-68
2021/07/13 12:18:47;;;;;;;14.98;13.98;;;19.00;69.50;;;;;;4999738;29;20555;-70
2021/07/13 12:21:20;;;;;;;14.38;13.38;;;18.90;69.10;;;;;;5000308;29;20053;-68
2021/07/13 12:24:09;;;;;;;14.55;13.55;;;18.80;70.70;;;;;;4997955;29;20049;-68
2021/07/13 12:26:41;;;;;;;14.77;13.77;;;18.70;69.60;;;;;;4999262;29;20945;-68
2021/07/13 12:29:15;;;;;;;14.20;13.20;;;18.50;71.20;;;;;;5001530;29;20570;-68
2021/07/13 12:31:47;;;;;;;14.80;13.80;;;18.40;70.90;;;;;;5000676;29;20110;-68
2021/07/13 12:34:26;;;;;;;14.60;13.60;;;18.20;72.40;;;;;;5002708;29;20419;-69
2021/07/13 12:37:13;;;;;;;14.38;13.25;;;18.10;72.00;;;;;;5002483;29;20098;-68
2021/07/13 12:39:49;;;;;;;14.30;13.30;;;18.00;73.80;;;;;;5002312;29;20050;-69
2021/07/13 12:42:23;;;;;;;14.60;13.45;;;17.80;73.20;;;;;;5001307;29;20053;-68
2021/07/13 12:45:08;;;;;;;14.60;13.60;;;17.80;73.20;;;;;;5001002;29;20422;-68
2021/07/13 12:47:47;;;;;;;;;;;17.70;74.20;;;;;;5000812;29;20106;-68
2021/07/13 12:50:21;;;;;;;15.13;14.02;;;17.50;74.60;;;;;;5001093;29;19928;-69
2021/07/13 12:53:04;;;;;;;14.45;13.45;;;17.50;74.30;;;;;;5001919;29;20126;-71
2021/07/13 12:55:39;;;;;;;14.48;13.48;;;17.40;73.80;;;;;;5000140;29;20479;-69
2021/07/13 12:58:11;;;;;;;14.63;13.63;;;17.30;73.70;;;;;;5003061;29;20096;-70
2021/07/13 13:00:48;;;;;;;14.82;13.80;;;17.30;74.10;;;;;;5001454;29;20090;-68
2021/07/13 13:03:22;;;;;;;14.35;13.35;;;17.20;74.00;;;;;;5001937;29;20514;-70
2021/07/13 13:05:55;;;;;;;14.77;13.68;;;17.20;75.00;;;;;;4998769;29;20057;-70